createdAt,value
2019-01-15T00:01:11.327Z,53.10
2019-01-15T00:03:46.441Z,53.10
2019-01-15T00:06:21.648Z,53.10
2019-01-15T00:08:56.759Z,53.10
2019-01-15T00:11:31.973Z,53.20
2019-01-15T00:14:07.420Z,53.10
2019-01-15T00:16:42.580Z,53.10
2019-01-15T00:19:17.765Z,53.00
2019-01-15T00:21:52.986Z,53.60
2019-01-15T00:24:28.181Z,52.90
2019-01-15T00:27:03.463Z,52.80
2019-01-15T00:29:38.716Z,52.80
2019-01-15T00:32:13.869Z,52.80
2019-01-15T00:34:49.052Z,52.60
2019-01-15T00:37:24.265Z,52.60
2019-01-15T00:39:59.457Z,52.60
2019-01-15T00:42:34.689Z,52.50
2019-01-15T00:45:10.276Z,52.40
2019-01-15T00:47:45.428Z,52.40
2019-01-15T00:50:20.608Z,52.50
2019-01-15T00:52:55.809Z,52.50
2019-01-15T00:55:31.021Z,52.40
2019-01-15T00:58:06.203Z,52.50
2019-01-15T01:00:41.405Z,52.40
2019-01-15T01:03:16.633Z,53.00
2019-01-15T01:05:51.751Z,52.40
2019-01-15T01:08:26.960Z,52.40
2019-01-15T01:11:02.368Z,52.40
2019-01-15T01:13:37.640Z,52.50
2019-01-15T01:16:12.748Z,52.50
2019-01-15T01:18:48.028Z,52.40
2019-01-15T01:21:23.210Z,52.40
2019-01-15T01:23:58.333Z,52.40
2019-01-15T01:26:33.447Z,52.40
2019-01-15T01:29:08.659Z,52.30
2019-01-15T01:31:43.855Z,52.30
2019-01-15T01:34:19.148Z,52.10
2019-01-15T01:36:54.338Z,52.00
2019-01-15T01:39:29.516Z,52.10
2019-01-15T01:42:04.832Z,52.10
2019-01-15T01:44:40.061Z,52.00
2019-01-15T01:47:15.243Z,52.10
2019-01-15T01:49:50.412Z,52.10
2019-01-15T01:52:25.659Z,52.10
2019-01-15T01:55:00.860Z,52.10
2019-01-15T01:57:36.056Z,52.00
2019-01-15T02:00:19.824Z,51.90
2019-01-15T02:02:55.016Z,52.10
2019-01-15T02:05:30.241Z,52.00
2019-01-15T02:08:05.531Z,51.90
2019-01-15T02:10:40.741Z,51.90
2019-01-15T02:13:16.011Z,52.00
2019-01-15T02:15:51.311Z,51.90
2019-01-15T02:18:26.564Z,51.70
2019-01-15T02:21:01.708Z,51.80
2019-01-15T02:23:36.816Z,51.60
2019-01-15T02:26:12.022Z,51.50
2019-01-15T02:28:47.128Z,51.40
2019-01-15T02:31:22.263Z,51.50
2019-01-15T02:33:57.448Z,51.30
2019-01-15T02:36:32.656Z,51.40
2019-01-15T02:39:08.397Z,51.20
2019-01-15T02:41:43.605Z,51.20
2019-01-15T02:44:18.797Z,51.00
2019-01-15T02:46:54.036Z,51.10
2019-01-15T02:49:29.156Z,51.10
2019-01-15T02:52:04.441Z,51.20
2019-01-15T02:54:39.567Z,50.80
2019-01-15T02:57:14.805Z,51.20
2019-01-15T02:59:49.991Z,51.20
2019-01-15T03:02:25.155Z,50.80
2019-01-15T03:05:00.337Z,51.10
2019-01-15T03:07:35.548Z,51.20
2019-01-15T03:10:12.064Z,51.00
2019-01-15T03:12:55.382Z,51.30
2019-01-15T03:15:27.279Z,51.10
2019-01-15T03:18:02.549Z,51.30
2019-01-15T03:20:37.656Z,51.40
2019-01-15T03:23:12.875Z,51.50
2019-01-15T03:25:48.127Z,51.80
2019-01-15T03:28:23.288Z,52.00
2019-01-15T03:30:58.526Z,52.00
2019-01-15T03:33:33.744Z,52.10
2019-01-15T03:36:09.006Z,52.20
2019-01-15T03:38:44.223Z,52.00
2019-01-15T03:41:19.328Z,51.80
2019-01-15T03:43:54.473Z,52.00
2019-01-15T03:46:29.644Z,52.10
2019-01-15T03:49:04.934Z,52.10
2019-01-15T03:51:40.120Z,52.00
2019-01-15T03:54:15.324Z,51.80
2019-01-15T03:56:50.432Z,51.80
2019-01-15T03:59:25.640Z,52.00
2019-01-15T04:02:00.758Z,52.20
2019-01-15T04:04:36.381Z,51.90
2019-01-15T04:07:12.253Z,51.80
2019-01-15T04:09:48.254Z,52.20
2019-01-15T04:12:23.442Z,51.60
2019-01-15T04:14:58.644Z,51.50
2019-01-15T04:17:33.837Z,51.30
2019-01-15T04:20:11.583Z,51.50
2019-01-15T04:22:46.704Z,51.00
2019-01-15T04:25:22.017Z,51.50
2019-01-15T04:27:57.129Z,51.60
2019-01-15T04:30:32.336Z,51.60
2019-01-15T04:33:07.458Z,51.40
2019-01-15T04:35:42.660Z,51.40
2019-01-15T04:38:17.777Z,51.50
2019-01-15T04:40:52.928Z,51.40
2019-01-15T04:43:28.106Z,51.40
2019-01-15T04:46:03.232Z,51.70
2019-01-15T04:48:38.441Z,51.80
2019-01-15T04:51:13.709Z,51.10
2019-01-15T04:53:48.823Z,51.60
2019-01-15T04:56:23.984Z,51.60
2019-01-15T04:58:59.092Z,51.70
2019-01-15T05:01:34.234Z,51.60
2019-01-15T05:04:09.489Z,51.60
2019-01-15T05:06:44.635Z,51.50
2019-01-15T05:09:19.809Z,51.50
2019-01-15T05:11:54.958Z,51.40
2019-01-15T05:14:30.216Z,51.30
2019-01-15T05:17:05.433Z,51.40
2019-01-15T05:19:40.620Z,51.20
2019-01-15T05:22:15.828Z,51.20
2019-01-15T05:24:50.958Z,51.40
2019-01-15T05:27:26.353Z,51.20
2019-01-15T05:30:01.619Z,51.20
2019-01-15T05:32:36.900Z,51.20
2019-01-15T05:35:13.122Z,51.20
2019-01-15T05:37:48.528Z,51.20
2019-01-15T05:40:23.722Z,51.10
2019-01-15T05:42:58.936Z,51.00
2019-01-15T05:45:36.404Z,50.90
2019-01-15T05:48:19.541Z,50.90
2019-01-15T05:51:12.407Z,50.80
2019-01-15T05:53:47.721Z,50.80
2019-01-15T05:56:22.909Z,50.80
2019-01-15T05:58:58.198Z,50.90
2019-01-15T06:01:33.454Z,50.60
2019-01-15T06:04:08.797Z,50.50
2019-01-15T06:06:43.915Z,50.40
2019-01-15T06:09:19.154Z,50.30
2019-01-15T06:11:54.282Z,50.40
2019-01-15T06:14:29.501Z,50.30
2019-01-15T06:17:04.928Z,50.30
2019-01-15T06:19:40.119Z,50.30
2019-01-15T06:22:15.239Z,50.30
2019-01-15T06:24:50.441Z,50.20
2019-01-15T06:27:25.564Z,50.00
2019-01-15T06:30:00.858Z,50.10
2019-01-15T06:32:36.054Z,50.10
2019-01-15T06:35:11.295Z,50.20
2019-01-15T06:37:46.492Z,50.10
2019-01-15T06:40:21.910Z,50.10
2019-01-15T06:42:57.121Z,49.80
2019-01-15T06:45:32.400Z,49.90
2019-01-15T06:48:07.694Z,50.30
2019-01-15T06:50:42.977Z,49.80
2019-01-15T06:53:18.177Z,49.90
2019-01-15T06:55:53.349Z,49.40
2019-01-15T06:58:28.545Z,49.50
2019-01-15T07:01:03.888Z,49.20
2019-01-15T07:03:39.109Z,49.50
2019-01-15T07:06:14.270Z,49.40
2019-01-15T07:08:49.451Z,49.10
2019-01-15T07:11:24.647Z,49.30
2019-01-15T07:13:59.841Z,49.40
2019-01-15T07:16:35.350Z,49.40
2019-01-15T07:19:10.607Z,49.30
2019-01-15T07:21:46.104Z,49.30
2019-01-15T07:24:21.360Z,49.40
2019-01-15T07:26:56.497Z,49.40
2019-01-15T07:29:31.865Z,49.50
2019-01-15T07:32:07.097Z,49.60
2019-01-15T07:34:42.272Z,49.50
2019-01-15T07:37:17.406Z,49.50
2019-01-15T07:39:52.694Z,49.60
2019-01-15T07:42:27.888Z,49.50
2019-01-15T07:45:03.072Z,49.50
2019-01-15T07:47:38.437Z,49.20
2019-01-15T07:50:15.788Z,49.40
2019-01-15T07:52:51.117Z,49.10
2019-01-15T07:55:26.228Z,49.30
2019-01-15T07:58:01.409Z,49.20
2019-01-15T08:00:36.669Z,49.00
2019-01-15T08:03:11.901Z,49.20
2019-01-15T08:05:47.032Z,49.20
2019-01-15T08:08:22.232Z,49.40
2019-01-15T08:10:57.410Z,49.40
2019-01-15T08:13:32.541Z,49.50
2019-01-15T08:16:07.661Z,49.60
2019-01-15T08:18:42.860Z,49.60
2019-01-15T08:21:18.058Z,49.70
2019-01-15T08:23:53.249Z,49.70
2019-01-15T08:26:28.374Z,49.40
2019-01-15T08:29:03.509Z,49.30
2019-01-15T08:31:38.697Z,49.60
2019-01-15T08:34:13.972Z,49.60
2019-01-15T08:36:49.099Z,49.70
2019-01-15T08:39:24.303Z,49.60
2019-01-15T08:41:59.428Z,49.10
2019-01-15T08:44:34.725Z,49.40
2019-01-15T08:47:09.918Z,49.60
2019-01-15T08:49:45.060Z,49.50
2019-01-15T08:52:20.276Z,49.40
2019-01-15T08:54:55.441Z,49.50
2019-01-15T08:57:30.645Z,49.50
2019-01-15T09:00:06.545Z,49.60
2019-01-15T09:02:41.739Z,49.60
2019-01-15T09:05:16.908Z,49.50
2019-01-15T09:07:52.127Z,49.50
2019-01-15T09:10:27.363Z,49.20
2019-01-15T09:13:02.501Z,49.40
2019-01-15T09:15:37.723Z,49.00
2019-01-15T09:18:13.011Z,49.00
2019-01-15T09:20:48.317Z,49.60
2019-01-15T09:23:23.440Z,49.10
2019-01-15T09:25:58.736Z,48.90
2019-01-15T09:28:33.930Z,49.10
2019-01-15T09:31:09.240Z,49.20
2019-01-15T09:33:44.483Z,49.10
2019-01-15T09:36:19.813Z,49.10
2019-01-15T09:38:54.997Z,49.10
2019-01-15T09:41:30.247Z,49.20
2019-01-15T09:44:05.846Z,49.00
2019-01-15T09:46:41.256Z,49.10
2019-01-15T09:49:16.582Z,49.00
2019-01-15T09:51:52.087Z,49.00
2019-01-15T09:54:27.687Z,49.10
2019-01-15T09:57:03.476Z,49.10
2019-01-15T09:59:39.561Z,49.10
2019-01-15T10:02:16.050Z,49.10
2019-01-15T10:04:53.237Z,49.00
2019-01-15T10:07:34.309Z,49.10
2019-01-15T10:10:14.160Z,49.10
2019-01-15T10:12:55.997Z,48.90
2019-01-15T10:15:37.095Z,48.90
2019-01-15T10:18:17.421Z,48.90
2019-01-15T10:20:58.249Z,48.90
2019-01-15T10:23:39.764Z,49.00
2019-01-15T10:26:20.607Z,49.40
2019-01-15T10:29:03.837Z,48.60
2019-01-15T10:32:32.236Z,48.80
2019-01-15T10:35:18.825Z,48.70
2019-01-15T10:38:00.237Z,48.90
2019-01-15T10:40:41.384Z,49.00
2019-01-15T10:43:22.650Z,49.00
2019-01-15T10:46:04.451Z,48.40
2019-01-15T10:48:45.928Z,48.70
2019-01-15T10:51:26.217Z,48.90
2019-01-15T10:54:07.186Z,48.90
2019-01-15T10:56:48.692Z,48.60
2019-01-15T10:59:28.847Z,48.60
2019-01-15T11:02:07.408Z,48.60
2019-01-15T11:04:47.543Z,48.50
2019-01-15T11:07:28.347Z,48.40
2019-01-15T11:10:08.010Z,48.60
2019-01-15T11:12:45.452Z,48.50
2019-01-15T11:15:21.301Z,48.60
2019-01-15T11:17:57.019Z,48.60
2019-01-15T11:20:32.529Z,48.80
2019-01-15T11:23:09.162Z,48.70
2019-01-15T11:25:44.457Z,48.60
2019-01-15T11:28:19.755Z,48.50
2019-01-15T11:30:55.147Z,48.80
2019-01-15T11:33:30.459Z,48.90
2019-01-15T11:36:05.852Z,48.60
2019-01-15T11:38:41.120Z,48.60
2019-01-15T11:41:16.580Z,48.40
2019-01-15T11:43:51.943Z,48.40
2019-01-15T11:46:27.315Z,48.50
2019-01-15T11:49:02.548Z,48.40
2019-01-15T11:51:37.931Z,48.40
2019-01-15T11:54:13.247Z,48.40
2019-01-15T11:56:48.544Z,48.60
2019-01-15T11:59:24.302Z,48.50
2019-01-15T12:02:22.187Z,48.30
2019-01-15T12:05:17.500Z,48.60
2019-01-15T12:08:11.813Z,48.80
2019-01-15T12:11:09.037Z,48.40
2019-01-15T12:14:02.320Z,48.60
2019-01-15T12:16:59.780Z,48.50
2019-01-15T12:19:55.839Z,48.60
2019-01-15T12:22:53.104Z,48.70
2019-01-15T12:25:45.324Z,48.60
2019-01-15T12:28:42.668Z,48.70
2019-01-15T12:31:31.641Z,48.70
2019-01-15T12:34:24.701Z,48.60
2019-01-15T12:37:17.654Z,48.80
2019-01-15T12:40:24.004Z,48.80
2019-01-15T12:43:30.272Z,48.90
2019-01-15T12:46:20.808Z,48.70
2019-01-15T12:49:17.901Z,48.70
2019-01-15T12:52:15.067Z,48.50
2019-01-15T12:55:07.642Z,48.70
2019-01-15T12:58:17.219Z,48.60
2019-01-15T13:01:08.853Z,48.50
2019-01-15T13:03:54.791Z,48.60
2019-01-15T13:07:07.040Z,48.60
2019-01-15T13:10:01.608Z,48.60
2019-01-15T13:12:55.713Z,48.70
2019-01-15T13:15:52.860Z,48.60
2019-01-15T13:18:45.540Z,48.50
2019-01-15T13:21:55.066Z,48.40
2019-01-15T13:24:49.166Z,48.30
2019-01-15T13:27:49.553Z,48.80
2019-01-15T13:30:46.664Z,48.10
2019-01-15T13:33:43.720Z,48.00
2019-01-15T13:36:43.981Z,48.10
2019-01-15T13:39:41.200Z,48.00
2019-01-15T13:42:38.426Z,47.90
2019-01-15T13:45:41.728Z,48.70
2019-01-15T13:48:38.577Z,48.10
2019-01-15T13:51:31.596Z,47.70
2019-01-15T13:54:32.660Z,47.50
2019-01-15T13:57:31.159Z,47.60
2019-01-15T14:00:26.204Z,47.40
2019-01-15T14:03:19.194Z,47.60
2019-01-15T14:06:28.772Z,47.40
2019-01-15T14:09:39.484Z,47.30
2019-01-15T14:12:34.515Z,47.40
2019-01-15T14:15:34.845Z,47.20
2019-01-15T14:18:29.017Z,47.50
2019-01-15T14:21:28.044Z,47.70
2019-01-15T14:24:25.175Z,47.70
2019-01-15T14:27:18.100Z,47.70
2019-01-15T14:30:21.508Z,47.90
2019-01-15T14:33:14.363Z,47.60
2019-01-15T14:36:05.893Z,47.70
2019-01-15T14:39:06.120Z,47.80
2019-01-15T14:41:59.116Z,47.60
2019-01-15T14:44:59.377Z,47.60
2019-01-15T14:47:59.749Z,47.40
2019-01-15T14:50:42.860Z,47.40
2019-01-15T14:53:30.574Z,47.40
2019-01-15T14:56:25.501Z,47.40
2019-01-15T14:59:38.394Z,47.20
2019-01-15T15:02:31.399Z,47.40
2019-01-15T15:05:37.756Z,46.90
2019-01-15T15:08:31.893Z,47.20
2019-01-15T15:11:28.879Z,47.40
2019-01-15T15:14:29.129Z,47.40
2019-01-15T15:17:35.474Z,47.30
2019-01-15T15:20:36.529Z,47.10
2019-01-15T15:23:30.556Z,48.00
2019-01-15T15:26:23.607Z,47.50
2019-01-15T15:29:15.140Z,47.50
2019-01-15T15:32:07.507Z,47.40
2019-01-15T15:35:00.264Z,47.40
2019-01-15T15:37:45.413Z,47.40
2019-01-15T15:40:38.408Z,47.40
2019-01-15T15:43:45.147Z,47.50
2019-01-15T15:46:48.504Z,47.60
2019-01-15T15:49:33.310Z,47.50
2019-01-15T15:52:27.556Z,47.90
2019-01-15T15:55:21.700Z,47.80
2019-01-15T15:58:04.259Z,47.90
2019-01-15T16:01:01.328Z,47.90
2019-01-15T16:03:54.212Z,47.70
2019-01-15T16:06:57.678Z,47.70
2019-01-15T16:10:07.138Z,47.90
2019-01-15T16:12:54.448Z,47.90
2019-01-15T16:15:57.664Z,48.20
2019-01-15T16:18:50.534Z,47.80
2019-01-15T16:21:50.521Z,47.90
2019-01-15T16:24:59.925Z,48.00
2019-01-15T16:27:52.609Z,47.70
2019-01-15T16:30:49.856Z,48.00
2019-01-15T16:33:47.045Z,48.00
2019-01-15T16:36:44.205Z,48.30
2019-01-15T16:39:37.312Z,48.40
2019-01-15T16:42:34.608Z,48.30
2019-01-15T16:45:29.799Z,48.40
2019-01-15T16:48:16.783Z,48.40
2019-01-15T16:51:10.807Z,48.40
2019-01-15T16:54:13.976Z,48.40
2019-01-15T16:57:13.651Z,48.40
2019-01-15T17:00:26.141Z,48.50
2019-01-15T17:03:12.768Z,48.40
2019-01-15T17:06:09.699Z,48.40
2019-01-15T17:09:02.797Z,48.40
2019-01-15T17:11:56.984Z,48.40
2019-01-15T17:15:06.453Z,48.30
2019-01-15T17:17:48.625Z,48.40
2019-01-15T17:20:41.585Z,49.10
2019-01-15T17:23:35.096Z,49.10
2019-01-15T17:26:38.513Z,48.70
2019-01-15T17:29:25.756Z,48.50
2019-01-15T17:32:26.093Z,48.50
2019-01-15T17:35:29.506Z,48.60
2019-01-15T17:38:22.655Z,48.50
2019-01-15T17:41:16.804Z,48.60
2019-01-15T17:44:09.680Z,48.60
2019-01-15T17:47:03.727Z,48.70
2019-01-15T17:49:59.044Z,48.60
2019-01-15T17:53:08.597Z,48.80
2019-01-15T17:56:01.704Z,48.90
2019-01-15T17:59:01.800Z,48.80
2019-01-15T18:02:11.072Z,48.80
2019-01-15T18:05:04.287Z,48.80
2019-01-15T18:07:56.980Z,48.80
2019-01-15T18:10:53.909Z,48.90
2019-01-15T18:13:48.012Z,48.90
2019-01-15T18:17:00.422Z,48.60
2019-01-15T18:20:13.270Z,48.60
2019-01-15T18:23:22.686Z,48.50
2019-01-15T18:26:16.884Z,48.60
2019-01-15T18:29:11.080Z,48.20
2019-01-15T18:32:05.236Z,48.70
2019-01-15T18:34:58.037Z,48.50
2019-01-15T18:37:39.909Z,48.40
2019-01-15T18:40:32.926Z,48.50
2019-01-15T18:43:29.990Z,48.50
2019-01-15T18:46:27.257Z,48.50
2019-01-15T18:49:30.656Z,48.60
2019-01-15T18:52:24.797Z,48.60
2019-01-15T18:55:31.316Z,48.60
2019-01-15T18:58:15.774Z,48.60
2019-01-15T19:01:25.316Z,48.70
2019-01-15T19:04:20.430Z,48.60
2019-01-15T19:07:32.744Z,48.60
2019-01-15T19:10:33.761Z,48.50
2019-01-15T19:13:40.256Z,48.70
2019-01-15T19:16:37.998Z,48.60
2019-01-15T19:19:27.152Z,48.60
2019-01-15T19:22:21.486Z,48.80
2019-01-15T19:25:24.964Z,48.90
2019-01-15T19:28:14.529Z,48.70
2019-01-15T19:31:08.578Z,48.80
2019-01-15T19:33:59.448Z,48.60
2019-01-15T19:37:05.868Z,48.60
2019-01-15T19:40:01.243Z,48.80
2019-01-15T19:43:04.784Z,48.90
2019-01-15T19:46:10.793Z,48.70
2019-01-15T19:49:03.810Z,48.80
2019-01-15T19:51:56.045Z,48.80
2019-01-15T19:54:48.920Z,48.90
2019-01-15T19:57:52.104Z,48.70
2019-01-15T20:00:49.178Z,48.70
2019-01-15T20:03:49.298Z,49.10
2019-01-15T20:06:55.565Z,48.60
2019-01-15T20:09:47.975Z,48.80
2019-01-15T20:12:48.163Z,49.30
2019-01-15T20:15:43.502Z,48.90
2019-01-15T20:18:40.712Z,48.90
2019-01-15T20:21:50.166Z,49.00
2019-01-15T20:24:47.316Z,48.90
2019-01-15T20:27:41.372Z,48.90
2019-01-15T20:30:44.803Z,48.90
2019-01-15T20:33:37.772Z,49.00
2019-01-15T20:36:44.227Z,49.00
2019-01-15T20:39:38.296Z,48.90
2019-01-15T20:42:38.737Z,49.00
2019-01-15T20:45:28.951Z,48.90
2019-01-15T20:48:38.396Z,49.40
2019-01-15T20:51:29.089Z,49.00
2019-01-15T20:54:12.765Z,48.90
2019-01-15T20:57:12.813Z,48.90
2019-01-15T21:00:06.924Z,49.00
2019-01-15T21:02:59.934Z,48.90
2019-01-15T21:05:54.120Z,49.00
2019-01-15T21:08:57.490Z,49.00
2019-01-15T21:11:50.420Z,48.90
2019-01-15T21:14:56.967Z,48.80
2019-01-15T21:17:50.533Z,48.80
2019-01-15T21:20:53.742Z,48.90
2019-01-15T21:23:54.041Z,48.80
2019-01-15T21:26:47.097Z,48.90
2019-01-15T21:29:40.145Z,49.40
2019-01-15T21:32:34.308Z,48.80
2019-01-15T21:35:33.047Z,48.80
2019-01-15T21:38:19.273Z,48.70
2019-01-15T21:41:03.482Z,48.70
2019-01-15T21:44:00.730Z,48.70
2019-01-15T21:46:54.774Z,48.80
2019-01-15T21:49:51.840Z,48.60
2019-01-15T21:53:01.257Z,48.50
2019-01-15T21:56:01.456Z,48.50
2019-01-15T21:59:01.845Z,48.60
2019-01-15T22:02:02.041Z,48.40
2019-01-15T22:04:56.087Z,48.30
2019-01-15T22:07:44.819Z,48.30
2019-01-15T22:10:40.748Z,48.20
2019-01-15T22:13:40.808Z,48.40
2019-01-15T22:16:31.148Z,48.20
2019-01-15T22:19:28.257Z,48.20
2019-01-15T22:22:29.545Z,48.20
2019-01-15T22:25:28.570Z,48.10
2019-01-15T22:28:21.603Z,48.00
2019-01-15T22:31:14.661Z,48.10
2019-01-15T22:34:14.749Z,47.90
2019-01-15T22:37:06.623Z,48.10
2019-01-15T22:40:03.781Z,48.10
2019-01-15T22:42:56.731Z,47.80
2019-01-15T22:45:53.692Z,47.90
2019-01-15T22:48:40.888Z,48.10
2019-01-15T22:51:33.977Z,48.10
2019-01-15T22:54:43.590Z,48.00
2019-01-15T22:57:46.898Z,47.80
2019-01-15T23:01:04.209Z,48.10
2019-01-15T23:03:58.350Z,48.10
2019-01-15T23:06:52.484Z,47.90
2019-01-15T23:09:44.497Z,47.90
2019-01-15T23:12:41.599Z,47.90
2019-01-15T23:15:41.936Z,47.90
2019-01-15T23:18:35.204Z,47.90
2019-01-15T23:21:41.549Z,48.00
2019-01-15T23:24:44.952Z,47.80
2019-01-15T23:27:39.013Z,47.90
2019-01-15T23:30:30.007Z,47.90
2019-01-15T23:33:39.608Z,47.70
2019-01-15T23:36:32.805Z,47.60
2019-01-15T23:39:21.636Z,47.80
2019-01-15T23:42:14.656Z,47.80
2019-01-15T23:45:07.682Z,47.90
2019-01-15T23:48:11.129Z,47.40
2019-01-15T23:51:05.947Z,47.90
2019-01-15T23:54:18.745Z,47.80
2019-01-15T23:57:24.489Z,48.00
